createdAt,value
2017-10-30T00:01:19.352Z,6.50
2017-10-30T00:03:47.513Z,6.50
2017-10-30T00:06:16.410Z,6.40
2017-10-30T00:08:44.595Z,6.30
2017-10-30T00:11:12.791Z,6.40
2017-10-30T00:13:40.943Z,6.40
2017-10-30T00:16:09.079Z,6.40
2017-10-30T00:18:37.222Z,6.30
2017-10-30T00:21:05.372Z,6.30
2017-10-30T00:23:33.532Z,6.30
2017-10-30T00:26:01.721Z,6.30
2017-10-30T00:28:34.838Z,6.30
2017-10-30T00:31:02.978Z,6.30
2017-10-30T00:33:31.131Z,6.20
2017-10-30T00:35:59.278Z,6.20
2017-10-30T00:38:29.012Z,6.20
2017-10-30T00:40:57.174Z,6.20
2017-10-30T00:43:26.085Z,6.20
2017-10-30T00:45:54.238Z,6.20
2017-10-30T00:48:22.378Z,6.20
2017-10-30T00:50:50.551Z,6.20
2017-10-30T00:53:18.756Z,6.20
2017-10-30T00:55:46.922Z,6.20
2017-10-30T00:58:15.818Z,6.20
2017-10-30T01:00:44.740Z,6.20
2017-10-30T01:03:12.919Z,6.20
2017-10-30T01:05:41.074Z,6.20
2017-10-30T01:08:09.260Z,6.20
2017-10-30T01:10:37.431Z,6.20
2017-10-30T01:13:05.575Z,6.20
2017-10-30T01:15:33.735Z,6.10
2017-10-30T01:18:02.634Z,6.10
2017-10-30T01:20:30.850Z,6.10
2017-10-30T01:22:58.983Z,6.10
2017-10-30T01:25:27.183Z,6.10
2017-10-30T01:27:55.322Z,6.10
2017-10-30T01:30:24.264Z,6.00
2017-10-30T01:32:52.764Z,6.00
2017-10-30T01:35:20.923Z,6.00
2017-10-30T01:37:49.077Z,6.00
2017-10-30T01:40:17.259Z,6.00
2017-10-30T01:42:45.398Z,6.00
2017-10-30T01:45:13.600Z,6.00
2017-10-30T01:47:41.739Z,6.00
2017-10-30T01:50:09.896Z,6.00
2017-10-30T01:52:38.802Z,6.00
2017-10-30T01:55:06.987Z,5.90
2017-10-30T01:57:35.128Z,6.00
2017-10-30T02:00:04.043Z,6.00
2017-10-30T02:02:32.659Z,5.90
2017-10-30T02:05:01.204Z,6.00
2017-10-30T02:07:29.363Z,5.90
2017-10-30T02:09:58.272Z,5.90
2017-10-30T02:12:26.430Z,5.90
2017-10-30T02:14:55.351Z,5.90
2017-10-30T02:17:23.498Z,5.90
2017-10-30T02:19:51.643Z,5.90
2017-10-30T02:22:19.872Z,6.00
2017-10-30T02:24:48.006Z,6.00
2017-10-30T02:27:16.963Z,6.00
2017-10-30T02:29:45.114Z,6.00
2017-10-30T02:32:13.265Z,6.00
2017-10-30T02:34:41.423Z,5.90
2017-10-30T02:37:09.563Z,5.90
2017-10-30T02:39:37.725Z,6.00
2017-10-30T02:42:05.873Z,5.90
2017-10-30T02:44:34.039Z,5.90
2017-10-30T02:47:02.399Z,5.90
2017-10-30T02:49:30.556Z,5.90
2017-10-30T02:51:59.483Z,5.90
2017-10-30T02:54:27.639Z,5.90
2017-10-30T02:56:56.503Z,5.90
2017-10-30T02:59:25.539Z,5.80
2017-10-30T03:01:53.686Z,5.80
2017-10-30T03:04:21.843Z,5.80
2017-10-30T03:06:50.760Z,5.70
2017-10-30T03:09:18.924Z,5.70
2017-10-30T03:11:47.078Z,5.70
2017-10-30T03:14:16.000Z,5.70
2017-10-30T03:16:44.192Z,5.70
2017-10-30T03:19:12.335Z,5.70
2017-10-30T03:21:40.515Z,5.70
2017-10-30T03:24:08.659Z,5.60
2017-10-30T03:26:37.590Z,5.60
2017-10-30T03:29:06.687Z,5.60
2017-10-30T03:31:34.854Z,5.60
2017-10-30T03:34:02.992Z,5.60
2017-10-30T03:36:31.911Z,5.70
2017-10-30T03:39:00.062Z,5.70
2017-10-30T03:41:28.687Z,5.60
2017-10-30T03:43:56.856Z,5.60
2017-10-30T03:46:25.108Z,5.80
2017-10-30T03:48:53.878Z,5.90
2017-10-30T03:51:22.806Z,6.10
2017-10-30T03:53:50.947Z,6.10
2017-10-30T03:56:19.104Z,6.10
2017-10-30T03:58:48.016Z,6.20
2017-10-30T04:01:16.215Z,6.20
2017-10-30T04:03:44.354Z,6.20
2017-10-30T04:06:12.532Z,6.10
2017-10-30T04:08:40.670Z,6.10
2017-10-30T04:11:08.816Z,6.10
2017-10-30T04:13:36.964Z,6.00
2017-10-30T04:16:05.142Z,6.00
2017-10-30T04:18:33.302Z,6.00
2017-10-30T04:21:01.447Z,6.00
2017-10-30T04:23:30.395Z,6.00
2017-10-30T04:25:58.552Z,5.90
2017-10-30T04:28:26.717Z,6.00
2017-10-30T04:30:54.851Z,6.10
2017-10-30T04:33:23.779Z,6.10
2017-10-30T04:35:51.918Z,6.10
2017-10-30T04:38:20.839Z,6.20
2017-10-30T04:40:49.019Z,6.20
2017-10-30T04:43:17.291Z,6.30
2017-10-30T04:45:45.455Z,6.30
2017-10-30T04:48:13.599Z,6.40
2017-10-30T04:50:42.498Z,6.40
2017-10-30T04:53:11.418Z,6.40
2017-10-30T04:55:39.555Z,6.40
2017-10-30T04:58:08.529Z,6.30
2017-10-30T05:00:37.448Z,6.30
2017-10-30T05:03:06.301Z,6.30
2017-10-30T05:05:34.461Z,6.30
2017-10-30T05:08:02.612Z,6.20
2017-10-30T05:10:30.770Z,6.20
2017-10-30T05:12:58.904Z,6.20
2017-10-30T05:15:27.847Z,6.00
2017-10-30T05:17:55.995Z,6.00
2017-10-30T05:20:24.167Z,6.00
2017-10-30T05:22:52.311Z,6.00
2017-10-30T05:25:20.540Z,5.90
2017-10-30T05:27:48.683Z,5.80
2017-10-30T05:30:16.864Z,5.80
2017-10-30T05:32:45.471Z,5.70
2017-10-30T05:35:13.679Z,5.80
2017-10-30T05:37:42.626Z,5.80
2017-10-30T05:40:10.798Z,5.70
2017-10-30T05:42:38.930Z,5.70
2017-10-30T05:45:07.839Z,5.80
2017-10-30T05:47:36.001Z,5.70
2017-10-30T05:50:04.148Z,5.70
2017-10-30T05:52:32.307Z,5.70
2017-10-30T05:55:00.465Z,5.60
2017-10-30T05:57:28.621Z,5.60
2017-10-30T05:59:56.806Z,5.60
2017-10-30T06:02:24.962Z,5.60
2017-10-30T06:04:53.112Z,5.60
2017-10-30T06:07:22.028Z,5.50
2017-10-30T06:09:50.178Z,5.50
2017-10-30T06:12:18.419Z,5.60
2017-10-30T06:14:46.934Z,5.60
2017-10-30T06:17:15.448Z,5.60
2017-10-30T06:19:43.609Z,5.70
2017-10-30T06:22:11.790Z,5.70
2017-10-30T06:24:39.950Z,5.70
2017-10-30T06:27:08.111Z,5.70
2017-10-30T06:29:36.242Z,5.70
2017-10-30T06:32:04.391Z,5.70
2017-10-30T06:34:32.528Z,5.70
2017-10-30T06:37:00.720Z,5.70
2017-10-30T06:39:28.880Z,5.70
2017-10-30T06:41:57.025Z,5.80
2017-10-30T06:44:25.960Z,5.70
2017-10-30T06:46:54.094Z,5.70
2017-10-30T06:49:23.076Z,5.80
2017-10-30T06:51:51.975Z,5.80
2017-10-30T06:54:20.893Z,5.80
2017-10-30T06:56:49.030Z,5.80
2017-10-30T06:59:17.961Z,5.90
2017-10-30T07:01:46.135Z,5.90
2017-10-30T07:04:14.308Z,5.90
2017-10-30T07:06:42.460Z,5.90
2017-10-30T07:09:10.617Z,6.00
2017-10-30T07:11:38.758Z,6.10
2017-10-30T07:14:06.920Z,6.20
2017-10-30T07:16:35.071Z,6.20
2017-10-30T07:19:03.251Z,6.20
2017-10-30T07:21:31.654Z,6.30
2017-10-30T07:23:59.798Z,6.30
2017-10-30T07:26:27.951Z,6.30
2017-10-30T07:28:56.114Z,6.40
2017-10-30T07:31:25.043Z,6.60
2017-10-30T07:33:53.195Z,6.50
2017-10-30T07:36:21.405Z,6.60
2017-10-30T07:38:49.556Z,6.70
2017-10-30T07:41:17.727Z,6.90
2017-10-30T07:43:45.866Z,7.20
2017-10-30T07:46:14.030Z,7.40
2017-10-30T07:48:42.934Z,7.50
2017-10-30T07:51:11.096Z,7.50
2017-10-30T07:53:39.239Z,7.40
2017-10-30T07:56:07.395Z,7.40
2017-10-30T07:58:35.535Z,7.50
2017-10-30T08:01:03.679Z,7.50
2017-10-30T08:03:32.603Z,7.50
2017-10-30T08:06:00.764Z,7.50
2017-10-30T08:08:28.929Z,7.50
2017-10-30T08:10:57.083Z,7.60
2017-10-30T08:13:26.016Z,7.60
2017-10-30T08:15:54.190Z,7.60
2017-10-30T08:18:22.353Z,7.70
2017-10-30T08:20:50.539Z,7.60
2017-10-30T08:23:18.699Z,7.70
2017-10-30T08:25:46.844Z,7.80
2017-10-30T08:28:16.484Z,7.80
2017-10-30T08:30:44.623Z,7.80
2017-10-30T08:33:13.547Z,7.90
2017-10-30T08:35:41.695Z,7.90
2017-10-30T08:38:09.855Z,8.20
2017-10-30T08:40:38.787Z,8.50
2017-10-30T08:43:06.943Z,8.50
2017-10-30T08:45:35.140Z,8.50
2017-10-30T08:48:03.307Z,8.60
2017-10-30T08:50:31.487Z,8.70
2017-10-30T08:52:59.643Z,8.80
2017-10-30T08:55:27.802Z,8.90
2017-10-30T08:57:55.963Z,9.00
2017-10-30T09:00:24.973Z,9.20
2017-10-30T09:02:53.132Z,9.10
2017-10-30T09:05:21.300Z,9.30
2017-10-30T09:07:50.218Z,9.50
2017-10-30T09:10:18.382Z,9.50
2017-10-30T09:12:46.572Z,9.50
2017-10-30T09:15:14.727Z,9.50
2017-10-30T09:17:42.884Z,9.30
2017-10-30T09:20:11.782Z,9.50
2017-10-30T09:22:39.952Z,9.40
2017-10-30T09:25:08.104Z,9.40
2017-10-30T09:27:37.051Z,9.50
2017-10-30T09:30:06.119Z,9.50
2017-10-30T09:32:34.275Z,9.60
2017-10-30T09:35:03.187Z,9.70
2017-10-30T09:37:31.346Z,9.70
2017-10-30T09:39:59.490Z,9.70
2017-10-30T09:42:27.724Z,9.80
2017-10-30T09:44:55.875Z,10.00
2017-10-30T09:47:24.042Z,10.10
2017-10-30T09:49:52.189Z,10.00
2017-10-30T09:52:21.118Z,10.20
2017-10-30T09:54:49.258Z,10.20
2017-10-30T09:57:18.174Z,10.10
2017-10-30T09:59:46.344Z,10.00
2017-10-30T10:02:14.499Z,10.10
2017-10-30T10:04:43.426Z,10.40
2017-10-30T10:07:11.582Z,10.40
2017-10-30T10:09:39.738Z,10.60
2017-10-30T10:12:07.943Z,10.80
2017-10-30T10:14:36.115Z,11.10
2017-10-30T10:17:04.261Z,11.50
2017-10-30T10:19:32.428Z,11.60
2017-10-30T10:22:00.570Z,11.70
2017-10-30T10:24:28.815Z,11.90
2017-10-30T10:26:56.963Z,12.10
2017-10-30T10:29:25.138Z,12.10
2017-10-30T10:31:53.297Z,12.10
2017-10-30T10:34:21.483Z,12.20
2017-10-30T10:36:49.638Z,12.40
2017-10-30T10:39:18.568Z,12.30
2017-10-30T10:41:46.734Z,12.30
2017-10-30T10:44:14.892Z,12.30
2017-10-30T10:46:43.067Z,12.30
2017-10-30T10:49:11.227Z,12.60
2017-10-30T10:51:39.421Z,12.90
2017-10-30T10:54:07.604Z,13.00
2017-10-30T10:56:35.784Z,13.40
2017-10-30T10:59:03.938Z,13.60
2017-10-30T11:01:32.107Z,13.60
2017-10-30T11:04:00.243Z,13.70
2017-10-30T11:06:29.175Z,14.60
2017-10-30T11:08:58.118Z,14.60
2017-10-30T11:11:26.346Z,14.80
2017-10-30T11:13:54.919Z,14.80
2017-10-30T11:16:23.123Z,14.90
2017-10-30T11:18:51.371Z,14.90
2017-10-30T11:21:19.523Z,14.80
2017-10-30T11:23:47.683Z,14.90
2017-10-30T11:26:15.852Z,15.20
2017-10-30T11:28:44.788Z,16.20
2017-10-30T11:31:12.934Z,16.10
2017-10-30T11:33:41.097Z,16.70
2017-10-30T11:36:10.002Z,17.10
2017-10-30T11:38:38.170Z,17.10
2017-10-30T11:41:06.311Z,17.10
2017-10-30T11:43:34.472Z,16.80
2017-10-30T11:46:02.765Z,16.80
2017-10-30T11:48:31.697Z,16.00
2017-10-30T11:50:59.845Z,16.10
2017-10-30T11:53:28.776Z,16.80
2017-10-30T11:55:56.941Z,16.80
2017-10-30T11:58:25.122Z,17.10
2017-10-30T12:00:53.275Z,17.70
2017-10-30T12:03:21.406Z,17.70
2017-10-30T12:05:50.343Z,17.80
2017-10-30T12:08:18.508Z,17.70
2017-10-30T12:10:46.670Z,17.90
2017-10-30T12:13:14.816Z,18.00
2017-10-30T12:15:43.746Z,18.70
2017-10-30T12:18:11.887Z,18.70
2017-10-30T12:20:40.925Z,18.50
2017-10-30T12:23:09.079Z,18.50
2017-10-30T12:25:37.249Z,17.90
2017-10-30T12:28:05.413Z,17.90
2017-10-30T12:30:34.221Z,17.90
2017-10-30T12:33:02.362Z,18.20
2017-10-30T12:35:31.319Z,17.20
2017-10-30T12:38:00.239Z,17.10
2017-10-30T12:40:29.156Z,14.80
2017-10-30T12:42:58.215Z,14.80
2017-10-30T12:45:27.137Z,13.20
2017-10-30T12:47:55.299Z,13.10
2017-10-30T12:50:23.457Z,12.30
2017-10-30T12:52:52.403Z,11.50
2017-10-30T12:55:20.567Z,11.40
2017-10-30T12:57:48.745Z,12.30
2017-10-30T13:00:17.583Z,12.70
2017-10-30T13:02:46.522Z,12.00
2017-10-30T13:05:14.663Z,12.00
2017-10-30T13:07:42.831Z,11.90
2017-10-30T13:10:10.982Z,12.10
2017-10-30T13:12:39.975Z,15.20
2017-10-30T13:15:08.890Z,16.10
2017-10-30T13:17:37.168Z,16.10
2017-10-30T13:20:05.333Z,16.90
2017-10-30T13:22:33.536Z,16.70
2017-10-30T13:25:01.687Z,16.30
2017-10-30T13:27:29.851Z,15.40
2017-10-30T13:29:58.773Z,16.60
2017-10-30T13:32:26.938Z,16.60
2017-10-30T13:34:55.070Z,17.00
2017-10-30T13:37:23.991Z,18.30
2017-10-30T13:39:52.218Z,18.20
2017-10-30T13:42:20.372Z,18.90
2017-10-30T13:44:48.637Z,19.10
2017-10-30T13:47:16.798Z,19.10
2017-10-30T13:49:44.969Z,19.00
2017-10-30T13:52:13.115Z,17.90
2017-10-30T13:54:41.937Z,17.50
2017-10-30T13:57:10.208Z,17.60
2017-10-30T13:59:38.385Z,16.90
2017-10-30T14:02:06.538Z,16.20
2017-10-30T14:04:34.703Z,16.50
2017-10-30T14:07:02.870Z,16.80
2017-10-30T14:09:31.484Z,17.60
2017-10-30T14:11:59.655Z,17.90
2017-10-30T14:14:27.825Z,18.30
2017-10-30T14:16:56.006Z,19.00
2017-10-30T14:19:24.181Z,19.40
2017-10-30T14:21:52.331Z,19.50
2017-10-30T14:24:20.477Z,20.10
2017-10-30T14:26:49.426Z,20.60
2017-10-30T14:29:17.567Z,20.60
2017-10-30T14:31:45.737Z,20.60
2017-10-30T14:34:13.927Z,19.80
2017-10-30T14:36:42.092Z,19.60
2017-10-30T14:39:10.266Z,19.40
2017-10-30T14:41:38.437Z,19.20
2017-10-30T14:44:06.582Z,19.20
2017-10-30T14:46:35.513Z,18.20
2017-10-30T14:49:03.673Z,18.10
2017-10-30T14:51:31.840Z,18.30
2017-10-30T14:53:59.983Z,16.60
2017-10-30T14:56:28.913Z,14.50
2017-10-30T14:58:57.086Z,14.40
2017-10-30T15:01:25.255Z,14.00
2017-10-30T15:03:53.398Z,13.90
2017-10-30T15:06:22.439Z,12.90
2017-10-30T15:08:50.713Z,12.90
2017-10-30T15:11:18.933Z,12.10
2017-10-30T15:13:47.846Z,10.90
2017-10-30T15:16:16.019Z,10.90
2017-10-30T15:18:44.196Z,10.40
2017-10-30T15:21:12.357Z,10.10
2017-10-30T15:23:40.515Z,9.90
2017-10-30T15:26:09.415Z,9.60
2017-10-30T15:28:37.620Z,9.60
2017-10-30T15:31:05.762Z,9.50
2017-10-30T15:33:33.967Z,9.30
2017-10-30T15:36:02.107Z,9.20
2017-10-30T15:38:31.106Z,9.20
2017-10-30T15:40:59.250Z,9.20
2017-10-30T15:43:27.408Z,9.20
2017-10-30T15:45:55.565Z,9.10
2017-10-30T15:48:23.730Z,9.10
2017-10-30T15:50:51.870Z,9.10
2017-10-30T15:53:20.051Z,9.10
2017-10-30T15:55:48.191Z,9.10
2017-10-30T15:58:17.119Z,9.10
2017-10-30T16:00:45.252Z,9.10
2017-10-30T16:03:14.171Z,9.10
2017-10-30T16:05:42.319Z,9.10
2017-10-30T16:08:11.236Z,9.20
2017-10-30T16:10:39.439Z,9.20
2017-10-30T16:13:07.592Z,9.20
2017-10-30T16:15:35.751Z,9.20
2017-10-30T16:18:03.900Z,9.20
2017-10-30T16:20:32.821Z,9.10
2017-10-30T16:23:00.966Z,9.10
2017-10-30T16:25:30.106Z,9.10
2017-10-30T16:27:58.243Z,9.10
2017-10-30T16:30:26.446Z,9.00
2017-10-30T16:32:54.687Z,8.90
2017-10-30T16:35:23.611Z,8.80
2017-10-30T16:37:51.805Z,8.80
2017-10-30T16:40:20.071Z,8.80
2017-10-30T16:42:48.235Z,8.70
2017-10-30T16:45:16.405Z,8.60
2017-10-30T16:47:44.572Z,8.40
2017-10-30T16:50:12.722Z,8.40
2017-10-30T16:52:41.750Z,8.20
2017-10-30T16:55:10.416Z,8.20
2017-10-30T16:57:38.626Z,8.10
2017-10-30T17:00:06.780Z,8.00
2017-10-30T17:02:34.958Z,8.00
2017-10-30T17:05:03.107Z,8.00
2017-10-30T17:07:31.359Z,7.90
2017-10-30T17:10:00.263Z,7.80
2017-10-30T17:12:28.448Z,7.80
2017-10-30T17:14:56.601Z,7.80
2017-10-30T17:17:24.816Z,7.70
2017-10-30T17:19:52.972Z,7.70
2017-10-30T17:22:21.122Z,7.70
2017-10-30T17:24:49.268Z,7.60
2017-10-30T17:27:18.506Z,7.50
2017-10-30T17:29:46.649Z,7.40
2017-10-30T17:32:15.594Z,7.40
2017-10-30T17:34:43.742Z,7.40
2017-10-30T17:37:12.794Z,7.30
2017-10-30T17:39:41.936Z,7.30
2017-10-30T17:42:10.123Z,7.30
2017-10-30T17:44:38.278Z,7.30
2017-10-30T17:47:06.415Z,7.30
2017-10-30T17:49:35.339Z,7.20
2017-10-30T17:52:03.514Z,7.20
2017-10-30T17:54:31.670Z,7.20
2017-10-30T17:56:59.807Z,7.20
2017-10-30T17:59:28.028Z,7.10
2017-10-30T18:01:56.254Z,7.10
2017-10-30T18:04:24.423Z,7.10
2017-10-30T18:06:52.834Z,7.10
2017-10-30T18:09:22.375Z,7.00
2017-10-30T18:11:50.519Z,7.00
2017-10-30T18:14:18.728Z,6.90
2017-10-30T18:16:46.930Z,7.00
2017-10-30T18:19:15.098Z,6.90
2017-10-30T18:21:43.278Z,6.80
2017-10-30T18:24:11.512Z,6.80
2017-10-30T18:26:39.667Z,6.80
2017-10-30T18:29:07.827Z,6.70
2017-10-30T18:31:35.988Z,6.70
2017-10-30T18:34:04.928Z,6.80
2017-10-30T18:36:33.106Z,6.80
2017-10-30T18:39:01.275Z,6.90
2017-10-30T18:41:29.440Z,6.80
2017-10-30T18:43:57.600Z,6.80
2017-10-30T18:46:25.803Z,6.90
2017-10-30T18:48:53.962Z,6.90
2017-10-30T18:51:22.591Z,6.80
2017-10-30T18:53:51.520Z,6.70
2017-10-30T18:56:19.672Z,6.70
2017-10-30T18:58:47.871Z,6.70
2017-10-30T19:01:16.854Z,6.60
2017-10-30T19:03:45.024Z,6.60
2017-10-30T19:06:13.167Z,6.60
2017-10-30T19:08:42.094Z,6.50
2017-10-30T19:11:10.252Z,6.50
2017-10-30T19:13:38.409Z,6.40
2017-10-30T19:16:06.587Z,6.50
2017-10-30T19:18:34.758Z,6.40
2017-10-30T19:21:03.671Z,6.40
2017-10-30T19:23:31.859Z,6.40
2017-10-30T19:26:00.055Z,6.40
2017-10-30T19:28:28.241Z,6.40
2017-10-30T19:30:56.399Z,6.40
2017-10-30T19:33:24.691Z,6.30
2017-10-30T19:35:52.848Z,6.30
2017-10-30T19:38:20.993Z,6.20
2017-10-30T19:40:49.151Z,6.20
2017-10-30T19:43:17.922Z,6.20
2017-10-30T19:45:46.914Z,6.30
2017-10-30T19:48:15.839Z,6.20
2017-10-30T19:50:43.997Z,6.20
2017-10-30T19:53:12.160Z,6.30
2017-10-30T19:55:40.322Z,6.30
2017-10-30T19:58:09.352Z,6.30
2017-10-30T20:00:37.531Z,6.40
2017-10-30T20:03:05.664Z,6.40
2017-10-30T20:05:40.716Z,6.30
2017-10-30T20:11:13.811Z,6.40
2017-10-30T20:13:41.964Z,6.40
2017-10-30T20:16:10.917Z,6.40
2017-10-30T20:18:39.072Z,6.40
2017-10-30T20:21:07.207Z,6.40
2017-10-30T20:23:36.143Z,6.40
2017-10-30T20:26:04.299Z,6.40
2017-10-30T20:28:32.459Z,6.40
2017-10-30T20:31:00.618Z,6.40
2017-10-30T20:33:29.558Z,6.30
2017-10-30T20:35:57.710Z,6.30
2017-10-30T20:38:25.894Z,6.30
2017-10-30T20:40:54.086Z,6.30
2017-10-30T20:43:22.255Z,6.30
2017-10-30T20:45:50.416Z,6.10
2017-10-30T20:48:18.591Z,6.10
2017-10-30T20:50:46.728Z,6.00
2017-10-30T20:53:14.935Z,6.10
2017-10-30T20:55:43.103Z,6.00
2017-10-30T20:58:11.279Z,6.10
2017-10-30T21:00:39.433Z,6.00
2017-10-30T21:03:07.646Z,6.10
2017-10-30T21:05:35.816Z,6.00
2017-10-30T21:08:03.954Z,5.80
2017-10-30T21:10:32.120Z,5.70
2017-10-30T21:13:00.278Z,5.70
2017-10-30T21:15:28.484Z,5.50
2017-10-30T21:17:56.633Z,5.40
2017-10-30T21:20:24.794Z,5.40
2017-10-30T21:22:54.437Z,5.40
2017-10-30T21:25:22.594Z,5.30
2017-10-30T21:27:50.759Z,5.30
2017-10-30T21:30:18.934Z,5.30
2017-10-30T21:32:47.074Z,5.20
2017-10-30T21:35:15.257Z,5.20
2017-10-30T21:37:44.332Z,5.10
2017-10-30T21:40:12.486Z,5.00
2017-10-30T21:42:40.749Z,5.00
2017-10-30T21:45:08.885Z,5.10
2017-10-30T21:47:37.800Z,5.00
2017-10-30T21:50:05.952Z,5.00
2017-10-30T21:52:34.111Z,5.20
2017-10-30T21:55:02.252Z,5.30
2017-10-30T21:57:30.419Z,5.40
2017-10-30T21:59:58.565Z,5.40
2017-10-30T22:02:26.714Z,5.50
2017-10-30T22:04:54.852Z,5.60
2017-10-30T22:07:23.179Z,5.60
2017-10-30T22:09:51.363Z,5.60
2017-10-30T22:12:21.030Z,5.60
2017-10-30T22:14:49.926Z,5.70
2017-10-30T22:17:18.132Z,5.70
2017-10-30T22:19:46.843Z,5.70
2017-10-30T22:22:14.987Z,5.90
2017-10-30T22:24:43.226Z,6.00
2017-10-30T22:27:12.122Z,6.00
2017-10-30T22:29:40.426Z,6.00
2017-10-30T22:32:08.626Z,6.00
2017-10-30T22:34:36.777Z,6.10
2017-10-30T22:37:04.911Z,6.10
2017-10-30T22:39:33.830Z,6.30
2017-10-30T22:42:01.972Z,6.30
2017-10-30T22:44:30.899Z,6.30
2017-10-30T22:46:59.045Z,6.30
2017-10-30T22:49:27.203Z,6.40
2017-10-30T22:51:56.108Z,6.30
2017-10-30T22:54:24.310Z,6.30
2017-10-30T22:56:52.455Z,6.40
2017-10-30T22:59:20.602Z,6.30
2017-10-30T23:01:49.530Z,6.40
2017-10-30T23:04:18.375Z,6.40
2017-10-30T23:06:46.548Z,6.50
2017-10-30T23:09:14.695Z,6.50
2017-10-30T23:11:42.951Z,6.50
2017-10-30T23:14:11.095Z,6.50
2017-10-30T23:16:39.315Z,6.40
2017-10-30T23:19:07.456Z,6.40
2017-10-30T23:21:35.647Z,6.50
2017-10-30T23:24:04.503Z,6.50
2017-10-30T23:26:32.678Z,6.40
2017-10-30T23:29:00.825Z,6.40
2017-10-30T23:31:29.767Z,6.40
2017-10-30T23:33:57.939Z,6.40
2017-10-30T23:36:26.548Z,6.40
2017-10-30T23:38:54.733Z,6.50
2017-10-30T23:41:22.874Z,6.50
2017-10-30T23:43:51.022Z,6.50
2017-10-30T23:46:19.171Z,6.40
2017-10-30T23:48:48.110Z,6.40
2017-10-30T23:51:16.247Z,6.40
2017-10-30T23:53:44.390Z,6.30
2017-10-30T23:56:13.143Z,6.40
2017-10-30T23:58:41.283Z,6.40
